Time;durP1;ratioP1;P1;durP2;ratioP2;P2;SDS_P1;SDS_P2;PMS_P1;PMS_P2;Temp;Humidity;BMP_temperature;BMP_pressure;BME280_temperature;BME280_humidity;BME280_pressure;Samples;Min_cycle;Max_cycle;Signal;HPM_P1;HPM_P2
2022/10/29 00:01:56;;;;;;;;;;;;;;;;;;4960662;28;20196;-58
2022/10/29 00:04:22;;;;;;;;;;;;;;;;;;4960549;28;19929;-60
2022/10/29 00:06:47;;;;;;;;;;;;;;;;;;4941848;28;19929;-57
2022/10/29 00:09:12;;;;;;;;;;;;;;;;;;4943638;28;19917;-59
2022/10/29 00:11:40;;;;;;;;;;;;;;;;;;4951887;28;19937;-58
2022/10/29 00:14:10;;;;;;;;;;;;;;;;;;4954778;28;19995;-58
2022/10/29 00:16:38;;;;;;;;;;;;;;;;;;4943603;28;20000;-58
2022/10/29 00:19:03;;;;;;;;;;;;;;;;;;4961632;28;20288;-58
2022/10/29 00:21:31;;;;;;;;;;;;;;;;;;4960499;28;19918;-58
2022/10/29 00:23:57;;;;;;;;;;;;;;;;;;4956484;28;20337;-59
2022/10/29 00:26:22;;;;;;;;;;;;;;;;;;4958749;28;19925;-58
2022/10/29 00:28:47;;;;;;;;;;;;;;;;;;4954953;28;19921;-58
2022/10/29 00:31:13;;;;;;;;;;;;;;;;;;4955747;28;19975;-58
2022/10/29 00:33:38;;;;;;;;;;;;;;;;;;4928661;28;19960;-59
2022/10/29 00:36:03;;;;;;;;;;;;;;;;;;4940573;28;20036;-58
2022/10/29 00:38:29;;;;;;;;;;;;;;;;;;4959372;28;21079;-57
2022/10/29 00:40:56;;;;;;;;;;;;;;;;;;4961426;28;20193;-57
2022/10/29 00:43:22;;;;;;;;;;;;;;;;;;4944751;28;20485;-59
2022/10/29 00:45:50;;;;;;;;;;;;;;;;;;4961414;28;20301;-58
2022/10/29 00:48:17;;;;;;;;;;;;;;;;;;4958327;28;19917;-58
2022/10/29 00:50:43;;;;;;;;;;;;;;;;;;4946216;28;19926;-58
2022/10/29 00:53:11;;;;;;;;;;;;;;;;;;4960047;28;20362;-58
2022/10/29 00:55:36;;;;;;;;;;;;;;;;;;4960437;28;20460;-58
2022/10/29 00:58:01;;;;;;;;;;;;;;;;;;4945332;28;19950;-58
2022/10/29 01:00:29;;;;;;;;;;;;;;;;;;4956438;28;19921;-59
2022/10/29 01:06:12;;;;;;;;;;;;;;;;;;4957482;28;19953;-57
2022/10/29 01:08:38;;;;;;;;;;;;;;;;;;4942452;28;19957;-58
2022/10/29 01:11:03;;;;;;;;;;;;;;;;;;4948375;28;19929;-58
2022/10/29 01:13:31;;;;;;;;;;;;;;;;;;4976233;28;20460;-57
2022/10/29 01:15:57;;;;;;;;;;;;;;;;;;4950387;28;20319;-58
2022/10/29 01:18:22;;;;;;;;;;;;;;;;;;4979485;28;19976;-58
2022/10/29 01:20:48;;;;;;;;;;;;;;;;;;4980833;28;19937;-58
2022/10/29 01:23:13;;;;;;;;;;;;;;;;;;4970728;28;19929;-58
2022/10/29 01:25:41;;;;;;;;;;;;;;;;;;4970537;28;19935;-58
2022/10/29 01:28:06;;;;;;;;;;;;;;;;;;4961956;28;19921;-58
2022/10/29 01:30:32;;;;;;;;;;;;;;;;;;4975066;28;19929;-59
2022/10/29 01:32:57;;;;;;;;;;;;;;;;;;4978521;28;19921;-57
2022/10/29 01:35:22;;;;;;;;;;;;;;;;;;4944607;28;19929;-57
2022/10/29 01:37:48;;;;;;;;;;;;;;;;;;4979014;28;20029;-58
2022/10/29 01:40:13;;;;;;;;;;;;;;;;;;4978296;28;19968;-57
2022/10/29 01:42:39;;;;;;;;;;;;;;;;;;4976848;28;19952;-57
2022/10/29 01:45:04;;;;;;;;;;;;;;;;;;4962011;28;20785;-58
2022/10/29 01:47:30;;;;;;;;;;;;;;;;;;4977099;28;19991;-58
2022/10/29 01:49:57;;;;;;;;;;;;;;;;;;4981038;28;20364;-58
2022/10/29 01:52:22;;;;;;;;;;;;;;;;;;4961288;28;20073;-58
2022/10/29 01:54:48;;;;;;;;;;;;;;;;;;4978483;28;20502;-58
2022/10/29 01:57:13;;;;;;;;;;;;;;;;;;4973677;28;19929;-58
2022/10/29 01:59:42;;;;;;;;;;;;;;;;;;4976658;28;20531;-58
2022/10/29 02:05:26;;;;;;;;;;;;;;;;;;4977256;28;19931;-58
2022/10/29 02:07:51;;;;;;;;;;;;;;;;;;4961339;28;19918;-58
2022/10/29 02:10:16;;;;;;;;;;;;;;;;;;4974669;28;20369;-58
2022/10/29 02:12:44;;;;;;;;;;;;;;;;;;4940825;28;20491;-57
2022/10/29 02:15:12;;;;;;;;;;;;;;;;;;4958549;28;20263;-58
2022/10/29 02:17:37;;;;;;;;;;;;;;;;;;4941478;28;19922;-58
2022/10/29 02:20:02;;;;;;;;;;;;;;;;;;4960606;28;20371;-57
2022/10/29 02:22:30;;;;;;;;;;;;;;;;;;4963504;28;20373;-58
2022/10/29 02:25:01;;;;;;;;;;;;;;;;;;4962819;28;19926;-58
2022/10/29 02:27:29;;;;;;;;;;;;;;;;;;4963397;28;19981;-56
2022/10/29 02:29:54;;;;;;;;;;;;;;;;;;4951772;28;20441;-56
2022/10/29 02:32:19;;;;;;;;;;;;;;;;;;4962579;28;19922;-57
2022/10/29 02:34:44;;;;;;;;;;;;;;;;;;4963303;28;19965;-56
2022/10/29 02:37:09;;;;;;;;;;;;;;;;;;4959975;28;20029;-56
2022/10/29 02:39:35;;;;;;;;;;;;;;;;;;4944065;28;20614;-57
2022/10/29 02:42:00;;;;;;;;;;;;;;;;;;4963266;28;20114;-56
2022/10/29 02:44:25;;;;;;;;;;;;;;;;;;4963914;28;20015;-57
2022/10/29 02:46:51;;;;;;;;;;;;;;;;;;4961123;28;20020;-57
2022/10/29 02:49:16;;;;;;;;;;;;;;;;;;4960708;28;19922;-56
2022/10/29 02:51:41;;;;;;;;;;;;;;;;;;4961538;28;19922;-57
2022/10/29 02:54:07;;;;;;;;;;;;;;;;;;4946690;28;20492;-57
2022/10/29 02:56:32;;;;;;;;;;;;;;;;;;4963674;28;20681;-56
2022/10/29 02:59:00;;;;;;;;;;;;;;;;;;4945904;28;19933;-56
2022/10/29 03:01:27;;;;;;;;;;;;;;;;;;4942851;28;19928;-56
2022/10/29 03:03:53;;;;;;;;;;;;;;;;;;4941059;28;20015;-58
2022/10/29 03:06:20;;;;;;;;;;;;;;;;;;4961597;28;19933;-56
2022/10/29 03:08:46;;;;;;;;;;;;;;;;;;4962213;28;20176;-57
2022/10/29 03:11:11;;;;;;;;;;;;;;;;;;4960875;28;19926;-57
2022/10/29 03:13:42;;;;;;;;;;;;;;;;;;4959945;28;20385;-56
2022/10/29 03:16:09;;;;;;;;;;;;;;;;;;4954542;28;20386;-57
2022/10/29 03:18:42;;;;;;;;;;;;;;;;;;4963557;28;19917;-56
2022/10/29 03:21:08;;;;;;;;;;;;;;;;;;4950743;28;20934;-56
2022/10/29 03:23:36;;;;;;;;;;;;;;;;;;4961362;28;19928;-57
2022/10/29 03:26:01;;;;;;;;;;;;;;;;;;4962108;28;20930;-57
2022/10/29 03:28:27;;;;;;;;;;;;;;;;;;4959330;28;19921;-57
2022/10/29 03:30:52;;;;;;;;;;;;;;;;;;4950164;28;19930;-58
2022/10/29 03:33:17;;;;;;;;;;;;;;;;;;4960440;28;19922;-57
2022/10/29 03:35:43;;;;;;;;;;;;;;;;;;4962579;28;20508;-57
2022/10/29 03:38:08;;;;;;;;;;;;;;;;;;4960746;28;19971;-56
2022/10/29 03:40:36;;;;;;;;;;;;;;;;;;4945356;28;19922;-57
2022/10/29 03:43:01;;;;;;;;;;;;;;;;;;4941734;28;19948;-56
2022/10/29 03:45:29;;;;;;;;;;;;;;;;;;4959363;28;19926;-57
2022/10/29 03:47:55;;;;;;;;;;;;;;;;;;4957061;28;20016;-57
2022/10/29 03:53:38;;;;;;;;;;;;;;;;;;4957459;28;20268;-57
2022/10/29 03:56:04;;;;;;;;;;;;;;;;;;4959913;28;19918;-56
2022/10/29 03:58:32;;;;;;;;;;;;;;;;;;4944692;28;19918;-56
2022/10/29 04:00:58;;;;;;;;;;;;;;;;;;4937163;28;19922;-57
2022/10/29 04:03:23;;;;;;;;;;;;;;;;;;4928113;28;20055;-57
2022/10/29 04:05:48;;;;;;;;;;;;;;;;;;4936208;28;19933;-57
2022/10/29 04:08:16;;;;;;;;;;;;;;;;;;4962873;28;19922;-57
2022/10/29 04:10:41;;;;;;;;;;;;;;;;;;4951856;28;20351;-55
2022/10/29 04:13:09;;;;;;;;;;;;;;;;;;4962311;28;19921;-55
2022/10/29 04:15:36;;;;;;;;;;;;;;;;;;4955511;28;19975;-57
2022/10/29 04:18:02;;;;;;;;;;;;;;;;;;4981147;28;19989;-56
2022/10/29 04:20:27;;;;;;;;;;;;;;;;;;4965303;28;19925;-56
2022/10/29 04:22:57;;;;;;;;;;;;;;;;;;4978577;28;19935;-56
2022/10/29 04:25:22;;;;;;;;;;;;;;;;;;4963164;28;19926;-56
2022/10/29 04:27:51;;;;;;;;;;;;;;;;;;4981292;28;20354;-57
2022/10/29 04:30:19;;;;;;;;;;;;;;;;;;4975792;28;19935;-56
2022/10/29 04:32:46;;;;;;;;;;;;;;;;;;4971352;28;22123;-57
2022/10/29 04:35:12;;;;;;;;;;;;;;;;;;4980282;28;19929;-57
2022/10/29 04:37:37;;;;;;;;;;;;;;;;;;4977858;28;19995;-55
2022/10/29 04:40:02;;;;;;;;;;;;;;;;;;4980310;28;20226;-56
2022/10/29 04:42:28;;;;;;;;;;;;;;;;;;4980843;28;19929;-56
2022/10/29 04:44:53;;;;;;;;;;;;;;;;;;4971897;28;20207;-57
2022/10/29 04:47:23;;;;;;;;;;;;;;;;;;4981531;28;19918;-57
2022/10/29 04:49:48;;;;;;;;;;;;;;;;;;4979600;28;19929;-57
2022/10/29 04:52:19;;;;;;;;;;;;;;;;;;4979434;28;19960;-57
2022/10/29 04:54:44;;;;;;;;;;;;;;;;;;4979371;28;19928;-57
2022/10/29 04:57:12;;;;;;;;;;;;;;;;;;4978894;28;19921;-57
2022/10/29 04:59:40;;;;;;;;;;;;;;;;;;4976201;28;19921;-58
2022/10/29 05:02:07;;;;;;;;;;;;;;;;;;4980833;28;20019;-58
2022/10/29 05:04:33;;;;;;;;;;;;;;;;;;4981587;28;19964;-57
2022/10/29 05:06:58;;;;;;;;;;;;;;;;;;4952981;28;20447;-56
2022/10/29 05:09:23;;;;;;;;;;;;;;;;;;4972828;28;20321;-56
2022/10/29 05:11:51;;;;;;;;;;;;;;;;;;4978870;28;19936;-57
2022/10/29 05:14:17;;;;;;;;;;;;;;;;;;4976616;28;19922;-57
2022/10/29 05:16:47;;;;;;;;;;;;;;;;;;4956791;28;22082;-57
2022/10/29 05:19:14;;;;;;;;;;;;;;;;;;4980865;28;20316;-57
2022/10/29 05:21:42;;;;;;;;;;;;;;;;;;4949808;28;19922;-56
2022/10/29 05:24:07;;;;;;;;;;;;;;;;;;4966628;28;19918;-57
2022/10/29 05:26:37;;;;;;;;;;;;;;;;;;4974731;28;19926;-56
2022/10/29 05:29:05;;;;;;;;;;;;;;;;;;4969411;28;20044;-56
2022/10/29 05:31:30;;;;;;;;;;;;;;;;;;4955239;28;19933;-56
2022/10/29 05:33:55;;;;;;;;;;;;;;;;;;4963036;28;19925;-56
2022/10/29 05:36:20;;;;;;;;;;;;;;;;;;4975199;28;20320;-57
2022/10/29 05:38:46;;;;;;;;;;;;;;;;;;4981035;28;19928;-55
2022/10/29 05:41:13;;;;;;;;;;;;;;;;;;4969842;28;19921;-55
2022/10/29 05:43:39;;;;;;;;;;;;;;;;;;4965250;28;19921;-56
2022/10/29 05:46:04;;;;;;;;;;;;;;;;;;4956544;28;20405;-56
2022/10/29 05:48:29;;;;;;;;;;;;;;;;;;4975714;28;19933;-57
2022/10/29 05:50:57;;;;;;;;;;;;;;;;;;4958924;28;20558;-56
2022/10/29 05:53:24;;;;;;;;;;;;;;;;;;4974306;28;21834;-56
2022/10/29 05:55:52;;;;;;;;;;;;;;;;;;4969633;28;19929;-57
2022/10/29 05:58:20;;;;;;;;;;;;;;;;;;4957617;28;19928;-54
2022/10/29 06:00:47;;;;;;;;;;;;;;;;;;4974842;28;20258;-54
2022/10/29 06:03:13;;;;;;;;;;;;;;;;;;4985194;28;21499;-56
2022/10/29 06:05:38;;;;;;;;;;;;;;;;;;4958724;28;20382;-56
2022/10/29 06:08:06;;;;;;;;;;;;;;;;;;4989318;28;20035;-54
2022/10/29 06:10:33;;;;;;;;;;;;;;;;;;4966806;28;19917;-55
2022/10/29 06:13:01;;;;;;;;;;;;;;;;;;4942991;28;20433;-56
2022/10/29 06:15:29;;;;;;;;;;;;;;;;;;4948239;28;20360;-56
2022/10/29 06:17:54;;;;;;;;;;;;;;;;;;4943385;28;19941;-54
2022/10/29 06:20:22;;;;;;;;;;;;;;;;;;4968349;28;19922;-56
2022/10/29 06:22:47;;;;;;;;;;;;;;;;;;4963275;28;19926;-56
2022/10/29 06:25:15;;;;;;;;;;;;;;;;;;4951006;28;20024;-55
2022/10/29 06:27:44;;;;;;;;;;;;;;;;;;4965394;28;19921;-55
2022/10/29 06:30:10;;;;;;;;;;;;;;;;;;4965967;28;19929;-56
2022/10/29 06:32:35;;;;;;;;;;;;;;;;;;4941082;28;19921;-56
2022/10/29 06:35:03;;;;;;;;;;;;;;;;;;4962864;28;20549;-56
2022/10/29 06:37:32;;;;;;;;;;;;;;;;;;4949449;28;20124;-56
2022/10/29 06:39:57;;;;;;;;;;;;;;;;;;4945398;28;19926;-56
2022/10/29 06:42:27;;;;;;;;;;;;;;;;;;4950740;28;20326;-58
2022/10/29 06:44:54;;;;;;;;;;;;;;;;;;4965507;28;20382;-57
2022/10/29 06:47:24;;;;;;;;;;;;;;;;;;4963349;28;19925;-56
2022/10/29 06:49:49;;;;;;;;;;;;;;;;;;4948754;28;20503;-57
2022/10/29 06:52:17;;;;;;;;;;;;;;;;;;4963957;28;19926;-56
2022/10/29 06:54:42;;;;;;;;;;;;;;;;;;4961498;28;20003;-57
2022/10/29 06:57:10;;;;;;;;;;;;;;;;;;4963838;28;20271;-54
2022/10/29 06:59:40;;;;;;;;;;;;;;;;;;4961850;28;19957;-55
2022/10/29 07:02:05;;;;;;;;;;;;;;;;;;4946716;28;19926;-55
2022/10/29 07:04:30;;;;;;;;;;;;;;;;;;4965839;28;19926;-57
2022/10/29 07:06:58;;;;;;;;;;;;;;;;;;4948625;28;19929;-55
2022/10/29 07:09:25;;;;;;;;;;;;;;;;;;4964486;28;20579;-56
2022/10/29 07:11:50;;;;;;;;;;;;;;;;;;4966375;28;19934;-56
2022/10/29 07:14:16;;;;;;;;;;;;;;;;;;4965201;28;20384;-57
2022/10/29 07:16:42;;;;;;;;;;;;;;;;;;4935164;28;20368;-56
2022/10/29 07:19:10;;;;;;;;;;;;;;;;;;4954798;28;19922;-56
2022/10/29 07:21:35;;;;;;;;;;;;;;;;;;4953128;28;19981;-56
2022/10/29 07:24:03;;;;;;;;;;;;;;;;;;4947962;28;20268;-56
2022/10/29 07:26:33;;;;;;;;;;;;;;;;;;4966449;28;19925;-56
2022/10/29 07:28:58;;;;;;;;;;;;;;;;;;4943473;28;19973;-57
2022/10/29 07:31:27;;;;;;;;;;;;;;;;;;4966137;28;20040;-56
2022/10/29 07:33:55;;;;;;;;;;;;;;;;;;4957951;28;20353;-56
2022/10/29 07:36:23;;;;;;;;;;;;;;;;;;4940822;28;19918;-56
2022/10/29 07:38:49;;;;;;;;;;;;;;;;;;4950134;28;19922;-56
2022/10/29 07:41:14;;;;;;;;;;;;;;;;;;4951295;28;19925;-55
2022/10/29 07:43:40;;;;;;;;;;;;;;;;;;4966605;28;19921;-56
2022/10/29 07:46:05;;;;;;;;;;;;;;;;;;4966151;28;19925;-55
2022/10/29 07:48:33;;;;;;;;;;;;;;;;;;4951344;28;19986;-55
2022/10/29 07:50:59;;;;;;;;;;;;;;;;;;4965777;28;19930;-56
2022/10/29 07:53:30;;;;;;;;;;;;;;;;;;4953061;28;20344;-56
2022/10/29 07:55:55;;;;;;;;;;;;;;;;;;4942366;28;19922;-55
2022/10/29 07:58:20;;;;;;;;;;;;;;;;;;4942293;28;20027;-54
2022/10/29 08:00:46;;;;;;;;;;;;;;;;;;4965399;28;20293;-55
2022/10/29 08:03:13;;;;;;;;;;;;;;;;;;4944976;28;20366;-55
2022/10/29 08:05:41;;;;;;;;;;;;;;;;;;4960221;28;19926;-55
2022/10/29 08:08:07;;;;;;;;;;;;;;;;;;4937400;28;19918;-56
2022/10/29 08:10:32;;;;;;;;;;;;;;;;;;4947838;28;19926;-55
2022/10/29 08:13:00;;;;;;;;;;;;;;;;;;4941790;28;20235;-55
2022/10/29 08:15:25;;;;;;;;;;;;;;;;;;4939072;28;19976;-54
2022/10/29 08:17:50;;;;;;;;;;;;;;;;;;4957293;28;19928;-56
2022/10/29 08:20:16;;;;;;;;;;;;;;;;;;4955872;28;21211;-55
2022/10/29 08:22:42;;;;;;;;;;;;;;;;;;4963620;28;20642;-55
2022/10/29 08:25:10;;;;;;;;;;;;;;;;;;4960510;28;19926;-56
2022/10/29 08:27:38;;;;;;;;;;;;;;;;;;4959298;28;20739;-54
2022/10/29 08:30:03;;;;;;;;;;;;;;;;;;4952456;28;19926;-55
2022/10/29 08:32:31;;;;;;;;;;;;;;;;;;4939936;28;20227;-56
2022/10/29 08:34:57;;;;;;;;;;;;;;;;;;4950981;28;20016;-55
2022/10/29 08:37:22;;;;;;;;;;;;;;;;;;4937602;28;20759;-53
2022/10/29 08:39:49;;;;;;;;;;;;;;;;;;4964026;28;19922;-55
2022/10/29 08:42:17;;;;;;;;;;;;;;;;;;4963133;28;21884;-54
2022/10/29 08:44:43;;;;;;;;;;;;;;;;;;4965190;28;19950;-56
2022/10/29 08:47:08;;;;;;;;;;;;;;;;;;4965813;28;19925;-55
2022/10/29 08:49:36;;;;;;;;;;;;;;;;;;4950509;28;21434;-56
2022/10/29 08:52:02;;;;;;;;;;;;;;;;;;4965300;28;20451;-55
2022/10/29 08:54:30;;;;;;;;;;;;;;;;;;4964539;28;20031;-55
2022/10/29 08:56:57;;;;;;;;;;;;;;;;;;4967007;28;19940;-54
2022/10/29 08:59:23;;;;;;;;;;;;;;;;;;4942065;28;19996;-55
2022/10/29 09:01:48;;;;;;;;;;;;;;;;;;4961601;28;20471;-56
2022/10/29 09:04:13;;;;;;;;;;;;;;;;;;4948949;28;20005;-55
2022/10/29 09:06:41;;;;;;;;;;;;;;;;;;4946333;28;20175;-56
2022/10/29 09:09:08;;;;;;;;;;;;;;;;;;4962193;28;20038;-57
2022/10/29 09:11:39;;;;;;;;;;;;;;;;;;4962109;28;19929;-56
2022/10/29 09:14:04;;;;;;;;;;;;;;;;;;4945712;28;19922;-55
2022/10/29 09:16:29;;;;;;;;;;;;;;;;;;4965307;28;19918;-55
2022/10/29 09:18:58;;;;;;;;;;;;;;;;;;4961502;28;20297;-55
2022/10/29 09:21:23;;;;;;;;;;;;;;;;;;4964791;28;19929;-55
2022/10/29 09:23:48;;;;;;;;;;;;;;;;;;4940402;28;20420;-56
2022/10/29 09:26:13;;;;;;;;;;;;;;;;;;4961952;28;19925;-55
2022/10/29 09:28:39;;;;;;;;;;;;;;;;;;4946462;28;19922;-56
2022/10/29 09:31:04;;;;;;;;;;;;;;;;;;4945798;28;19921;-55
2022/10/29 09:33:33;;;;;;;;;;;;;;;;;;4964157;28;19921;-55
2022/10/29 09:35:58;;;;;;;;;;;;;;;;;;4945693;28;21952;-55
2022/10/29 09:38:23;;;;;;;;;;;;;;;;;;4951357;28;19917;-56
2022/10/29 09:40:48;;;;;;;;;;;;;;;;;;4939272;28;19922;-56
2022/10/29 09:43:17;;;;;;;;;;;;;;;;;;4962956;28;19921;-54
2022/10/29 09:48:58;;;;;;;;;;;;;;;;;;4960973;28;20033;-55
2022/10/29 09:51:23;;;;;;;;;;;;;;;;;;4943952;28;19926;-55
2022/10/29 09:53:48;;;;;;;;;;;;;;;;;;4955504;28;19922;-55
2022/10/29 09:56:14;;;;;;;;;;;;;;;;;;4963445;28;21610;-56
2022/10/29 09:58:40;;;;;;;;;;;;;;;;;;4964793;28;19922;-56
2022/10/29 10:01:08;;;;;;;;;;;;;;;;;;4959559;28;20402;-56
2022/10/29 10:03:34;;;;;;;;;;;;;;;;;;4944600;28;19992;-55
2022/10/29 10:06:02;;;;;;;;;;;;;;;;;;4961194;28;19973;-55
2022/10/29 10:08:27;;;;;;;;;;;;;;;;;;4957548;28;20400;-56
2022/10/29 10:10:53;;;;;;;;;;;;;;;;;;4937290;28;20751;-58
2022/10/29 10:13:19;;;;;;;;;;;;;;;;;;4976941;28;21715;-56
2022/10/29 10:15:44;;;;;;;;;;;;;;;;;;4953678;28;20313;-56
2022/10/29 10:18:11;;;;;;;;;;;;;;;;;;4967232;28;20369;-56
2022/10/29 10:20:37;;;;;;;;;;;;;;;;;;4985107;28;20230;-57
2022/10/29 10:23:02;;;;;;;;;;;;;;;;;;4983551;28;19975;-57
2022/10/29 10:25:27;;;;;;;;;;;;;;;;;;4967345;28;20313;-57
2022/10/29 10:27:55;;;;;;;;;;;;;;;;;;4983663;28;19957;-57
2022/10/29 10:30:22;;;;;;;;;;;;;;;;;;4960770;28;20463;-57
2022/10/29 10:32:53;;;;;;;;;;;;;;;;;;4961020;28;19929;-57
2022/10/29 10:35:18;;;;;;;;;;;;;;;;;;4975625;28;19925;-55
2022/10/29 10:37:45;;;;;;;;;;;;;;;;;;4955228;28;20179;-56
2022/10/29 10:40:11;;;;;;;;;;;;;;;;;;4964872;28;20388;-56
2022/10/29 10:42:41;;;;;;;;;;;;;;;;;;4978909;28;20577;-56
2022/10/29 10:45:07;;;;;;;;;;;;;;;;;;4982047;28;20546;-57
2022/10/29 10:47:34;;;;;;;;;;;;;;;;;;4959666;28;19921;-57
2022/10/29 10:50:05;;;;;;;;;;;;;;;;;;4981465;28;19925;-57
2022/10/29 10:52:31;;;;;;;;;;;;;;;;;;4980132;28;20653;-57
2022/10/29 10:54:58;;;;;;;;;;;;;;;;;;4963139;28;20326;-57
2022/10/29 10:57:27;;;;;;;;;;;;;;;;;;4960301;28;19941;-58
2022/10/29 10:59:54;;;;;;;;;;;;;;;;;;4963323;28;19917;-56
2022/10/29 11:02:22;;;;;;;;;;;;;;;;;;4979399;28;20533;-58
2022/10/29 11:04:49;;;;;;;;;;;;;;;;;;4981930;28;19948;-57
2022/10/29 11:07:15;;;;;;;;;;;;;;;;;;4981678;28;20601;-58
2022/10/29 11:09:43;;;;;;;;;;;;;;;;;;4973966;28;19929;-58
2022/10/29 11:12:08;;;;;;;;;;;;;;;;;;4973944;28;19936;-57
2022/10/29 11:14:35;;;;;;;;;;;;;;;;;;4966167;28;20168;-57
2022/10/29 11:17:00;;;;;;;;;;;;;;;;;;4956536;28;20337;-56
2022/10/29 11:19:26;;;;;;;;;;;;;;;;;;4964535;28;19922;-57
2022/10/29 11:21:53;;;;;;;;;;;;;;;;;;4979121;28;21499;-58
2022/10/29 11:24:19;;;;;;;;;;;;;;;;;;4984012;28;19971;-58
2022/10/29 11:26:44;;;;;;;;;;;;;;;;;;4948380;28;20657;-58
2022/10/29 11:29:11;;;;;;;;;;;;;;;;;;4980269;28;21660;-58
2022/10/29 11:31:37;;;;;;;;;;;;;;;;;;4979245;28;19924;-58
2022/10/29 11:34:02;;;;;;;;;;;;;;;;;;4978608;28;19921;-58
2022/10/29 11:36:27;;;;;;;;;;;;;;;;;;4954716;28;20078;-58
2022/10/29 11:38:52;;;;;;;;;;;;;;;;;;4978421;28;19921;-59
2022/10/29 11:41:27;;;;;;;;;;;;;;;;;;4968906;28;20007;-59
2022/10/29 11:43:53;;;;;;;;;;;;;;;;;;4977564;28;20016;-58
2022/10/29 11:49:39;;;;;;;;;;;;;;;;;;4981078;28;19928;-58
2022/10/29 11:52:05;;;;;;;;;;;;;;;;;;4969535;28;20505;-59
2022/10/29 11:54:30;;;;;;;;;;;;;;;;;;4975964;28;19921;-58
2022/10/29 11:56:55;;;;;;;;;;;;;;;;;;4976701;28;20045;-58
2022/10/29 11:59:22;;;;;;;;;;;;;;;;;;4980961;28;19922;-59
2022/10/29 12:01:48;;;;;;;;;;;;;;;;;;4947108;28;19933;-58
2022/10/29 12:04:13;;;;;;;;;;;;;;;;;;4981631;28;20464;-58
2022/10/29 12:06:39;;;;;;;;;;;;;;;;;;4960101;28;20050;-59
2022/10/29 12:09:04;;;;;;;;;;;;;;;;;;4980862;28;19927;-58
2022/10/29 12:11:29;;;;;;;;;;;;;;;;;;4969882;28;19985;-58
2022/10/29 12:13:59;;;;;;;;;;;;;;;;;;4959063;28;20703;-58
2022/10/29 12:16:25;;;;;;;;;;;;;;;;;;4957298;28;19917;-57
2022/10/29 12:18:50;;;;;;;;;;;;;;;;;;4964399;28;19976;-57
2022/10/29 12:21:15;;;;;;;;;;;;;;;;;;4941364;28;20020;-58
2022/10/29 12:23:40;;;;;;;;;;;;;;;;;;4960007;28;20025;-57
2022/10/29 12:26:06;;;;;;;;;;;;;;;;;;4940210;28;20700;-57
2022/10/29 12:28:31;;;;;;;;;;;;;;;;;;4963224;28;19929;-58
2022/10/29 12:31:01;;;;;;;;;;;;;;;;;;4964964;28;19997;-58
2022/10/29 12:33:26;;;;;;;;;;;;;;;;;;4950272;28;20625;-58
2022/10/29 12:35:51;;;;;;;;;;;;;;;;;;4948115;28;19922;-58
2022/10/29 12:38:17;;;;;;;;;;;;;;;;;;4949885;28;20050;-58
2022/10/29 12:40:42;;;;;;;;;;;;;;;;;;4959178;28;19918;-57
2022/10/29 12:43:07;;;;;;;;;;;;;;;;;;4965301;28;20353;-58
2022/10/29 12:45:33;;;;;;;;;;;;;;;;;;4957109;28;19926;-59
2022/10/29 12:47:59;;;;;;;;;;;;;;;;;;4964872;28;19924;-58
2022/10/29 12:50:26;;;;;;;;;;;;;;;;;;4962497;28;20329;-58
2022/10/29 12:52:52;;;;;;;;;;;;;;;;;;4967055;28;19925;-58
2022/10/29 12:55:19;;;;;;;;;;;;;;;;;;4965142;28;19922;-58
2022/10/29 12:57:47;;;;;;;;;;;;;;;;;;4963522;28;20535;-58
2022/10/29 13:00:13;;;;;;;;;;;;;;;;;;4968461;28;20133;-58
2022/10/29 13:02:38;;;;;;;;;;;;;;;;;;4966767;28;20475;-57
2022/10/29 13:05:06;;;;;;;;;;;;;;;;;;4965398;28;19948;-57
2022/10/29 13:07:36;;;;;;;;;;;;;;;;;;4953663;28;19921;-58
2022/10/29 13:10:04;;;;;;;;;;;;;;;;;;4960146;28;20317;-58
2022/10/29 13:12:31;;;;;;;;;;;;;;;;;;4949205;28;19935;-57
2022/10/29 13:14:57;;;;;;;;;;;;;;;;;;4984292;28;19928;-57
2022/10/29 13:17:25;;;;;;;;;;;;;;;;;;4951884;28;20301;-58
2022/10/29 13:19:50;;;;;;;;;;;;;;;;;;4966175;28;19956;-58
2022/10/29 13:22:16;;;;;;;;;;;;;;;;;;4981513;28;19917;-58
2022/10/29 13:24:53;;;;;;;;;;;;;;;;;;4969149;28;19925;-58
2022/10/29 13:27:18;;;;;;;;;;;;;;;;;;4968847;28;19925;-58
2022/10/29 13:29:43;;;;;;;;;;;;;;;;;;4959950;28;19972;-58
2022/10/29 13:32:11;;;;;;;;;;;;;;;;;;4965226;28;19918;-57
2022/10/29 13:34:38;;;;;;;;;;;;;;;;;;4983492;28;19922;-57
2022/10/29 13:37:03;;;;;;;;;;;;;;;;;;4985587;28;20569;-57
2022/10/29 13:39:29;;;;;;;;;;;;;;;;;;4963803;28;19953;-58
2022/10/29 13:41:57;;;;;;;;;;;;;;;;;;4964955;28;20054;-57
2022/10/29 13:44:22;;;;;;;;;;;;;;;;;;4983456;28;20040;-58
2022/10/29 13:46:48;;;;;;;;;;;;;;;;;;4975297;28;19934;-58
2022/10/29 13:49:14;;;;;;;;;;;;;;;;;;4985616;28;19922;-58
2022/10/29 13:51:42;;;;;;;;;;;;;;;;;;4983284;28;19921;-58
2022/10/29 13:54:07;;;;;;;;;;;;;;;;;;4987133;28;20333;-58
2022/10/29 13:56:35;;;;;;;;;;;;;;;;;;4982056;28;20048;-58
2022/10/29 13:59:03;;;;;;;;;;;;;;;;;;4983092;28;20012;-58
2022/10/29 14:01:28;;;;;;;;;;;;;;;;;;4975364;28;19927;-58
2022/10/29 14:03:53;;;;;;;;;;;;;;;;;;4958252;28;20332;-58
2022/10/29 14:06:21;;;;;;;;;;;;;;;;;;4982505;28;20736;-58
2022/10/29 14:08:47;;;;;;;;;;;;;;;;;;4957467;28;20040;-58
2022/10/29 14:11:14;;;;;;;;;;;;;;;;;;4970479;28;19929;-58
2022/10/29 14:13:42;;;;;;;;;;;;;;;;;;4981311;28;20604;-58
2022/10/29 14:16:10;;;;;;;;;;;;;;;;;;4965635;28;20112;-58
2022/10/29 14:18:38;;;;;;;;;;;;;;;;;;4989253;28;20538;-58
2022/10/29 14:21:04;;;;;;;;;;;;;;;;;;4986572;28;20361;-59
2022/10/29 14:23:29;;;;;;;;;;;;;;;;;;4970208;28;19980;-58
2022/10/29 14:25:54;;;;;;;;;;;;;;;;;;4962423;28;20358;-58
2022/10/29 14:28:25;;;;;;;;;;;;;;;;;;4988509;28;19917;-58
2022/10/29 14:30:50;;;;;;;;;;;;;;;;;;4969740;28;19925;-57
2022/10/29 14:33:15;;;;;;;;;;;;;;;;;;4984953;28;19918;-58
2022/10/29 14:35:40;;;;;;;;;;;;;;;;;;4971112;28;19921;-58
2022/10/29 14:38:06;;;;;;;;;;;;;;;;;;4969433;28;19976;-57
2022/10/29 14:40:31;;;;;;;;;;;;;;;;;;4985337;28;19925;-58
2022/10/29 14:42:56;;;;;;;;;;;;;;;;;;4969046;28;20443;-57
2022/10/29 14:45:24;;;;;;;;;;;;;;;;;;4979448;28;19936;-58
2022/10/29 14:47:51;;;;;;;;;;;;;;;;;;4965993;28;19926;-57
2022/10/29 14:50:19;;;;;;;;;;;;;;;;;;4967005;28;19921;-58
2022/10/29 14:52:47;;;;;;;;;;;;;;;;;;4988258;28;20009;-58
2022/10/29 14:55:12;;;;;;;;;;;;;;;;;;4983517;28;20471;-58
2022/10/29 14:57:37;;;;;;;;;;;;;;;;;;4968733;28;20342;-58
2022/10/29 15:00:06;;;;;;;;;;;;;;;;;;4987378;28;20673;-57
2022/10/29 15:02:34;;;;;;;;;;;;;;;;;;4965158;28;19922;-58
2022/10/29 15:05:02;;;;;;;;;;;;;;;;;;4971917;28;19921;-57
2022/10/29 15:07:27;;;;;;;;;;;;;;;;;;4956235;28;19921;-57
2022/10/29 15:09:55;;;;;;;;;;;;;;;;;;4984266;28;20035;-58
2022/10/29 15:12:20;;;;;;;;;;;;;;;;;;4986361;28;21006;-58
2022/10/29 15:14:45;;;;;;;;;;;;;;;;;;4966138;28;20991;-58
2022/10/29 15:17:13;;;;;;;;;;;;;;;;;;4963850;28;19921;-58
2022/10/29 15:19:43;;;;;;;;;;;;;;;;;;4985971;28;19921;-58
2022/10/29 15:22:09;;;;;;;;;;;;;;;;;;4967612;28;19917;-58
2022/10/29 15:24:34;;;;;;;;;;;;;;;;;;4976928;28;19960;-57
2022/10/29 15:27:01;;;;;;;;;;;;;;;;;;4986067;28;20728;-57
2022/10/29 15:29:27;;;;;;;;;;;;;;;;;;4986020;28;19922;-57
2022/10/29 15:31:54;;;;;;;;;;;;;;;;;;4967229;28;20903;-57
2022/10/29 15:34:22;;;;;;;;;;;;;;;;;;4968893;28;20057;-57
2022/10/29 15:36:50;;;;;;;;;;;;;;;;;;4983593;28;20313;-58
2022/10/29 15:39:18;;;;;;;;;;;;;;;;;;4965484;28;19918;-58
2022/10/29 15:41:45;;;;;;;;;;;;;;;;;;4958284;28;20258;-58
2022/10/29 15:44:13;;;;;;;;;;;;;;;;;;4975328;28;19921;-59
2022/10/29 15:46:41;;;;;;;;;;;;;;;;;;4986886;28;20401;-59
2022/10/29 15:49:06;;;;;;;;;;;;;;;;;;4984630;28;19928;-59
2022/10/29 15:51:35;;;;;;;;;;;;;;;;;;4988118;28;19922;-59
2022/10/29 15:54:01;;;;;;;;;;;;;;;;;;4974847;28;19925;-58
2022/10/29 15:56:29;;;;;;;;;;;;;;;;;;4984465;28;19921;-59
2022/10/29 15:58:57;;;;;;;;;;;;;;;;;;4983498;28;20000;-58
2022/10/29 16:01:25;;;;;;;;;;;;;;;;;;4984267;28;19926;-57
2022/10/29 16:03:53;;;;;;;;;;;;;;;;;;4982336;28;20545;-58
2022/10/29 16:06:18;;;;;;;;;;;;;;;;;;4975002;28;19925;-58
2022/10/29 16:08:43;;;;;;;;;;;;;;;;;;4980423;28;19921;-58
2022/10/29 16:11:09;;;;;;;;;;;;;;;;;;4969861;28;19961;-58
2022/10/29 16:13:36;;;;;;;;;;;;;;;;;;4966216;28;20381;-58
2022/10/29 16:16:03;;;;;;;;;;;;;;;;;;4950144;28;19925;-57
2022/10/29 16:18:29;;;;;;;;;;;;;;;;;;4966655;28;20019;-58
2022/10/29 16:20:54;;;;;;;;;;;;;;;;;;4946997;28;19965;-57
2022/10/29 16:23:21;;;;;;;;;;;;;;;;;;4968687;28;20001;-57
2022/10/29 16:25:47;;;;;;;;;;;;;;;;;;4966122;28;20205;-57
2022/10/29 16:28:12;;;;;;;;;;;;;;;;;;4964773;28;19937;-58
2022/10/29 16:30:38;;;;;;;;;;;;;;;;;;4967004;28;19922;-58
2022/10/29 16:33:04;;;;;;;;;;;;;;;;;;4963481;28;19953;-57
2022/10/29 16:35:29;;;;;;;;;;;;;;;;;;4965500;28;19922;-57
2022/10/29 16:37:54;;;;;;;;;;;;;;;;;;4948563;28;20044;-57
2022/10/29 16:40:19;;;;;;;;;;;;;;;;;;4940314;28;19937;-58
2022/10/29 16:42:45;;;;;;;;;;;;;;;;;;4962765;28;19921;-57
2022/10/29 16:45:11;;;;;;;;;;;;;;;;;;4951296;28;19925;-57
2022/10/29 16:50:52;;;;;;;;;;;;;;;;;;4965311;28;20003;-57
2022/10/29 16:53:20;;;;;;;;;;;;;;;;;;4964208;28;20507;-58
2022/10/29 16:55:48;;;;;;;;;;;;;;;;;;4963682;28;19918;-57
2022/10/29 16:58:13;;;;;;;;;;;;;;;;;;4962265;28;19943;-58
2022/10/29 17:00:56;;;;;;;;;;;;;;;;;;4955387;28;19928;-57